sensor_id;sensor_type;location;lat;lon;timestamp;pressure;altitude;pressure_sealevel;temperature;humidity
9444;BME280;4760;42.148;24.754;2022-09-03T00:12:21;99317.44;;;20.72;nan
9444;BME280;4760;42.148;24.754;2022-09-03T00:22:16;99322.94;;;20.63;nan
9444;BME280;4760;42.148;24.754;2022-09-03T00:32:36;99320.19;;;20.51;nan
9444;BME280;4760;42.148;24.754;2022-09-03T00:42:38;99288.97;;;20.27;nan
9444;BME280;4760;42.148;24.754;2022-09-03T00:52:41;99306.13;;;20.42;nan
9444;BME280;4760;42.148;24.754;2022-09-03T01:36:13;99316.03;;;20.08;nan
9444;BME280;4760;42.148;24.754;2022-09-03T01:46:28;99307.28;;;20.06;nan
9444;BME280;4760;42.148;24.754;2022-09-03T01:56:30;99304.81;;;20.08;nan
9444;BME280;4760;42.148;24.754;2022-09-03T02:06:24;99296.31;;;20.12;nan
9444;BME280;4760;42.148;24.754;2022-09-03T02:16:15;99314.44;;;20.07;nan
9444;BME280;4760;42.148;24.754;2022-09-03T02:26:31;99330.44;;;20.32;nan
9444;BME280;4760;42.148;24.754;2022-09-03T02:36:24;99327.22;;;20.08;nan
9444;BME280;4760;42.148;24.754;2022-09-03T02:46:17;99338.06;;;20.06;nan
9444;BME280;4760;42.148;24.754;2022-09-03T02:56:33;99343.13;;;19.99;nan
9444;BME280;4760;42.148;24.754;2022-09-03T03:10:29;99339.88;;;20.00;nan
9444;BME280;4760;42.148;24.754;2022-09-03T03:13:22;99341.44;;;20.01;nan
9444;BME280;4760;42.148;24.754;2022-09-03T03:23:09;99331.38;;;19.91;nan
9444;BME280;4760;42.148;24.754;2022-09-03T03:33:22;99340.56;;;19.92;nan
9444;BME280;4760;42.148;24.754;2022-09-03T03:43:12;99333.72;;;19.80;nan
9444;BME280;4760;42.148;24.754;2022-09-03T03:53:25;99335.63;;;19.70;nan
9444;BME280;4760;42.148;24.754;2022-09-03T04:03:14;99342.44;;;19.82;nan
9444;BME280;4760;42.148;24.754;2022-09-03T04:13:29;99347.81;;;20.02;nan
9444;BME280;4760;42.148;24.754;2022-09-03T04:23:19;99359.44;;;20.38;nan
9444;BME280;4760;42.148;24.754;2022-09-03T04:33:13;99369.78;;;21.62;nan
9444;BME280;4760;42.148;24.754;2022-09-03T04:43:29;99377.50;;;24.11;nan
9444;BME280;4760;42.148;24.754;2022-09-03T04:53:20;99390.13;;;25.20;nan
9444;BME280;4760;42.148;24.754;2022-09-03T05:03:12;99409.06;;;26.02;nan
9444;BME280;4760;42.148;24.754;2022-09-03T05:17:15;99418.41;;;26.37;100.00
9444;BME280;4760;42.148;24.754;2022-09-03T05:27:27;99430.25;;;26.91;100.00
9444;BME280;4760;42.148;24.754;2022-09-03T05:37:16;99445.91;;;27.78;95.32
9444;BME280;4760;42.148;24.754;2022-09-03T05:47:30;99440.25;;;28.35;94.33
9444;BME280;4760;42.148;24.754;2022-09-03T05:57:20;99453.09;;;28.68;89.88
9444;BME280;4760;42.148;24.754;2022-09-03T06:22:15;99461.19;;;28.80;89.32
9444;BME280;4760;42.148;24.754;2022-09-03T06:32:28;99454.44;;;29.20;87.54
9444;BME280;4760;42.148;24.754;2022-09-03T06:42:16;99462.03;;;29.46;86.68
9444;BME280;4760;42.148;24.754;2022-09-03T06:52:31;99466.66;;;28.52;91.73
9444;BME280;4760;42.148;24.754;2022-09-03T07:02:21;99452.97;;;27.88;97.39
9444;BME280;4760;42.148;24.754;2022-09-03T07:12:09;99467.69;;;29.40;88.95
9444;BME280;4760;42.148;24.754;2022-09-03T07:22:27;99474.47;;;29.70;85.42
9444;BME280;4760;42.148;24.754;2022-09-03T07:32:37;99483.16;;;29.33;86.92
9444;BME280;4760;42.148;24.754;2022-09-03T07:42:27;99489.41;;;29.49;86.64
9444;BME280;4760;42.148;24.754;2022-09-03T07:52:16;99487.84;;;29.42;84.90
9444;BME280;4760;42.148;24.754;2022-09-03T08:02:30;99493.84;;;29.61;84.45
9444;BME280;4760;42.148;24.754;2022-09-03T08:12:18;99486.31;;;29.47;88.14
9444;BME280;4760;42.148;24.754;2022-09-03T08:22:34;99478.25;;;29.34;83.22
9444;BME280;4760;42.148;24.754;2022-09-03T08:32:23;99477.72;;;29.30;85.45
9444;BME280;4760;42.148;24.754;2022-09-03T08:42:27;99468.47;;;29.40;84.81
9444;BME280;4760;42.148;24.754;2022-09-03T08:52:25;99466.13;;;29.39;83.10
9444;BME280;4760;42.148;24.754;2022-09-03T09:02:24;99447.59;;;29.55;84.09
9444;BME280;4760;42.148;24.754;2022-09-03T09:12:20;99457.69;;;29.61;87.61
9444;BME280;4760;42.148;24.754;2022-09-03T09:47:13;99459.22;;;29.62;81.75
9444;BME280;4760;42.148;24.754;2022-09-03T09:57:30;99451.28;;;29.88;80.58
9444;BME280;4760;42.148;24.754;2022-09-03T10:07:23;99451.06;;;30.25;79.05
9444;BME280;4760;42.148;24.754;2022-09-03T10:17:16;99432.94;;;30.17;76.96
9444;BME280;4760;42.148;24.754;2022-09-03T10:27:33;99418.47;;;29.93;81.45
9444;BME280;4760;42.148;24.754;2022-09-03T10:37:30;99428.28;;;30.25;81.44
9444;BME280;4760;42.148;24.754;2022-09-03T10:47:40;99422.88;;;30.22;81.18
9444;BME280;4760;42.148;24.754;2022-09-03T10:57:45;99424.44;;;30.23;75.29
9444;BME280;4760;42.148;24.754;2022-09-03T11:11:48;99438.38;;;30.54;75.91
9444;BME280;4760;42.148;24.754;2022-09-03T11:21:39;99413.81;;;30.18;78.63
9444;BME280;4760;42.148;24.754;2022-09-03T11:31:44;99406.06;;;30.46;75.65
9444;BME280;4760;42.148;24.754;2022-09-03T11:46:03;99416.63;;;30.40;73.48
9444;BME280;4760;42.148;24.754;2022-09-03T12:24:32;99395.72;;;30.26;71.13
9444;BME280;4760;42.148;24.754;2022-09-03T12:34:23;99390.53;;;30.30;69.85
9444;BME280;4760;42.148;24.754;2022-09-03T12:44:23;99392.63;;;30.19;67.57
9444;BME280;4760;42.148;24.754;2022-09-03T12:54:16;99395.19;;;30.56;64.58
9444;BME280;4760;42.148;24.754;2022-09-03T13:04:31;99391.59;;;30.44;66.50
9444;BME280;4760;42.148;24.754;2022-09-03T13:14:20;99386.88;;;30.58;66.38
9444;BME280;4760;42.148;24.754;2022-09-03T13:49:34;99368.84;;;29.88;66.50
9444;BME280;4760;42.148;24.754;2022-09-03T13:59:49;99394.41;;;29.83;67.10
9444;BME280;4760;42.148;24.754;2022-09-03T14:09:47;99396.50;;;30.05;68.76
9444;BME280;4760;42.148;24.754;2022-09-03T14:19:44;99408.66;;;30.11;65.59
9444;BME280;4760;42.148;24.754;2022-09-03T14:29:35;99409.97;;;29.99;68.46
9444;BME280;4760;42.148;24.754;2022-09-03T14:39:30;99410.69;;;29.71;68.16
9444;BME280;4760;42.148;24.754;2022-09-03T14:49:38;99425.66;;;29.72;69.49
9444;BME280;4760;42.148;24.754;2022-09-03T15:29:12;99444.97;;;28.86;70.64
9444;BME280;4760;42.148;24.754;2022-09-03T15:39:30;99435.22;;;28.56;70.74
9444;BME280;4760;42.148;24.754;2022-09-03T15:49:28;99446.66;;;28.30;71.42
9444;BME280;4760;42.148;24.754;2022-09-03T15:59:24;99459.06;;;28.33;71.19
9444;BME280;4760;42.148;24.754;2022-09-03T16:09:26;99460.19;;;28.15;72.34
9444;BME280;4760;42.148;24.754;2022-09-03T16:19:20;99456.38;;;27.92;73.80
9444;BME280;4760;42.148;24.754;2022-09-03T16:29:15;99463.53;;;27.62;75.16
9444;BME280;4760;42.148;24.754;2022-09-03T16:39:35;99478.00;;;27.44;74.00
9444;BME280;4760;42.148;24.754;2022-09-03T17:11:38;99535.94;;;26.58;77.49
9444;BME280;4760;42.148;24.754;2022-09-03T17:21:37;99525.50;;;26.50;80.83
9444;BME280;4760;42.148;24.754;2022-09-03T17:46:34;99585.19;;;26.22;93.04
9444;BME280;4760;42.148;24.754;2022-09-03T17:56:28;99601.19;;;25.87;95.11
9444;BME280;4760;42.148;24.754;2022-09-03T18:06:25;99612.59;;;25.45;97.89
9444;BME280;4760;42.148;24.754;2022-09-03T18:16:18;99628.19;;;25.31;99.98
9444;BME280;4760;42.148;24.754;2022-09-03T18:26:18;99638.69;;;25.07;100.00
9444;BME280;4760;42.148;24.754;2022-09-03T18:36:31;99656.28;;;24.84;100.00
9444;BME280;4760;42.148;24.754;2022-09-03T18:46:41;99661.97;;;24.66;100.00
9444;BME280;4760;42.148;24.754;2022-09-03T19:11:28;99687.00;;;24.82;100.00
9444;BME280;4760;42.148;24.754;2022-09-03T19:21:38;99705.41;;;24.32;100.00
9444;BME280;4760;42.148;24.754;2022-09-03T19:46:28;99734.66;;;24.07;100.00
9444;BME280;4760;42.148;24.754;2022-09-03T19:56:39;99739.59;;;23.76;100.00
9444;BME280;4760;42.148;24.754;2022-09-03T20:21:22;99754.84;;;23.26;100.00
9444;BME280;4760;42.148;24.754;2022-09-03T20:56:29;99792.97;;;22.96;100.00
9444;BME280;4760;42.148;24.754;2022-09-03T21:06:29;99774.19;;;22.93;100.00
9444;BME280;4760;42.148;24.754;2022-09-03T21:16:27;99795.81;;;23.27;100.00
9444;BME280;4760;42.148;24.754;2022-09-03T21:26:21;99807.41;;;23.29;100.00
9444;BME280;4760;42.148;24.754;2022-09-03T21:46:50;99805.16;;;23.24;100.00
9444;BME280;4760;42.148;24.754;2022-09-03T22:11:37;99722.97;;;21.86;100.00
9444;BME280;4760;42.148;24.754;2022-09-03T22:21:30;99790.16;;;21.93;100.00
9444;BME280;4760;42.148;24.754;2022-09-03T22:31:26;99799.47;;;21.64;100.00
9444;BME280;4760;42.148;24.754;2022-09-03T22:41:32;99774.34;;;21.48;100.00
9444;BME280;4760;42.148;24.754;2022-09-03T22:55:56;99797.75;;;21.29;100.00
9444;BME280;4760;42.148;24.754;2022-09-03T23:05:50;99791.59;;;21.34;100.00
9444;BME280;4760;42.148;24.754;2022-09-03T23:15:41;99797.31;;;21.31;100.00
9444;BME280;4760;42.148;24.754;2022-09-03T23:25:32;99774.88;;;21.31;100.00
9444;BME280;4760;42.148;24.754;2022-09-03T23:35:27;99801.03;;;21.65;100.00
9444;BME280;4760;42.148;24.754;2022-09-03T23:45:23;99794.84;;;21.45;100.00
9444;BME280;4760;42.148;24.754;2022-09-03T23:55:26;99825.41;;;21.68;100.00
